Time;durP1;ratioP1;P1;durP2;ratioP2;P2;SDS_P1;SDS_P2;PMS_P1;PMS_P2;Temp;Humidity;BMP_temperature;BMP_pressure;BME280_temperature;BME280_humidity;BME280_pressure;Samples;Min_cycle;Max_cycle;Signal;HPM_P1;HPM_P2
2022/07/26 00:01:44;;;;;;;8.85;6.63;;;22.60;99.90;;;;;;4999155;28;20041;-32
2022/07/26 00:04:10;;;;;;;8.00;6.00;;;22.60;99.90;;;;;;5000021;28;20038;-32
2022/07/26 00:06:37;;;;;;;8.50;6.10;;;22.60;99.90;;;;;;5003588;28;20544;-32
2022/07/26 00:09:03;;;;;;;10.07;6.40;;;22.70;99.90;;;;;;5001348;28;20062;-32
2022/07/26 00:11:32;;;;;;;9.75;7.30;;;22.70;99.90;;;;;;5000839;28;20117;-33
2022/07/26 00:14:02;;;;;;;9.75;6.03;;;22.70;99.90;;;;;;5003300;28;20033;-32
2022/07/26 00:16:28;;;;;;;7.45;6.40;;;22.60;99.90;;;;;;5000671;28;20493;-31
2022/07/26 00:18:54;;;;;;;6.97;6.25;;;22.70;99.90;;;;;;5001407;28;20030;-32
2022/07/26 00:21:19;;;;;;;7.43;6.00;;;22.60;99.90;;;;;;5001761;28;20037;-32
2022/07/26 00:23:45;;;;;;;8.25;7.10;;;22.60;99.90;;;;;;5000182;28;20049;-32
2022/07/26 00:26:11;;;;;;;8.27;5.88;;;22.50;99.90;;;;;;5016004;28;20029;-32
2022/07/26 00:28:36;;;;;;;9.38;6.43;;;22.40;99.90;;;;;;4999573;28;20211;-33
2022/07/26 00:31:03;;;;;;;9.07;6.30;;;22.50;99.90;;;;;;5001602;28;20038;-32
2022/07/26 00:33:28;;;;;;;9.57;6.47;;;22.30;99.90;;;;;;5001118;28;20116;-32
2022/07/26 00:35:54;;;;;;;8.27;6.57;;;22.30;99.90;;;;;;4999445;28;20024;-32
2022/07/26 00:38:20;;;;;;;10.30;6.72;;;22.30;99.90;;;;;;5000363;28;20076;-32
2022/07/26 00:40:45;;;;;;;7.88;6.57;;;22.40;99.90;;;;;;5000341;28;20113;-32
2022/07/26 00:43:11;;;;;;;9.60;5.72;;;22.40;99.90;;;;;;5000974;28;20033;-32
2022/07/26 00:45:36;;;;;;;7.05;5.80;;;22.50;99.90;;;;;;5000421;28;20514;-32
2022/07/26 00:48:02;;;;;;;7.78;6.30;;;22.50;99.90;;;;;;4998958;28;21397;-31
2022/07/26 00:50:28;;;;;;;8.13;6.32;;;22.60;99.90;;;;;;5000897;28;20022;-32
2022/07/26 00:52:54;;;;;;;9.50;6.63;;;22.40;99.90;;;;;;4999236;28;20637;-32
2022/07/26 00:55:19;;;;;;;8.40;6.07;;;22.40;99.90;;;;;;4999716;28;20393;-31
2022/07/26 00:57:46;;;;;;;8.45;6.25;;;22.50;99.90;;;;;;4999516;28;20026;-32
2022/07/26 01:00:18;;;;;;;7.32;6.45;;;22.50;99.90;;;;;;5000300;28;20041;-31
2022/07/26 01:02:44;;;;;;;10.20;6.97;;;22.50;99.90;;;;;;5002842;28;20034;-39
2022/07/26 01:05:10;;;;;;;10.75;7.18;;;22.40;99.90;;;;;;5000294;28;20046;-36
2022/07/26 01:07:37;;;;;;;8.07;6.60;;;22.50;99.90;;;;;;5001455;28;22153;-36
2022/07/26 01:10:11;;;;;;;9.27;6.93;;;22.40;99.90;;;;;;5004604;28;20022;-39
2022/07/26 01:12:40;;;;;;;12.05;7.18;;;22.20;99.90;;;;;;5001497;28;20037;-38
2022/07/26 01:15:07;;;;;;;8.35;6.68;;;22.30;99.90;;;;;;5001997;28;20041;-38
2022/07/26 01:17:33;;;;;;;9.18;6.40;;;22.30;99.90;;;;;;5000971;28;20049;-39
2022/07/26 01:19:59;;;;;;;10.60;6.72;;;22.20;99.90;;;;;;5004099;28;20038;-39
2022/07/26 01:22:24;;;;;;;10.70;7.05;;;22.30;99.90;;;;;;5003386;28;20038;-40
2022/07/26 01:24:50;;;;;;;9.48;6.70;;;22.30;99.90;;;;;;5003759;28;20531;-37
2022/07/26 01:27:16;;;;;;;10.82;6.97;;;22.30;99.90;;;;;;5001738;28;20060;-36
2022/07/26 01:29:42;;;;;;;10.60;8.35;;;22.30;99.90;;;;;;5000237;28;20403;-39
2022/07/26 01:32:08;;;;;;;9.82;7.40;;;22.30;99.90;;;;;;5002485;28;20034;-39
2022/07/26 01:34:34;;;;;;;8.82;7.35;;;22.20;99.90;;;;;;5001700;28;20499;-37
2022/07/26 01:37:00;;;;;;;11.80;7.47;;;22.20;99.90;;;;;;5001709;28;20040;-39
2022/07/26 01:39:26;;;;;;;8.38;6.68;;;22.10;99.90;;;;;;5001764;28;20518;-38
2022/07/26 01:41:52;;;;;;;10.48;7.25;;;21.90;99.90;;;;;;5001960;28;20438;-35
2022/07/26 01:44:18;;;;;;;12.60;7.10;;;21.80;99.90;;;;;;5000827;28;20302;-37
2022/07/26 01:46:43;;;;;;;11.45;7.68;;;21.70;99.90;;;;;;5001080;28;20458;-38
2022/07/26 01:49:09;;;;;;;9.55;6.60;;;21.70;99.90;;;;;;5001953;28;20434;-39
2022/07/26 01:51:35;;;;;;;10.68;7.28;;;21.70;99.90;;;;;;5001099;28;20155;-39
2022/07/26 01:54:01;;;;;;;10.35;7.30;;;21.70;99.90;;;;;;4999553;28;20136;-37
2022/07/26 01:56:27;;;;;;;12.98;7.45;;;21.70;99.90;;;;;;5001627;28;20030;-39
2022/07/26 01:58:53;;;;;;;12.23;7.72;;;21.50;99.90;;;;;;5000974;28;20036;-39
2022/07/26 02:01:18;;;;;;;9.82;7.15;;;21.40;99.90;;;;;;4999927;28;20095;-39
2022/07/26 02:03:44;;;;;;;11.45;6.88;;;21.20;99.90;;;;;;5001252;28;20037;-39
2022/07/26 02:06:09;;;;;;;8.60;6.63;;;21.40;99.90;;;;;;5003585;28;20149;-38
2022/07/26 02:08:35;;;;;;;8.13;6.40;;;21.40;99.90;;;;;;5002986;28;20029;-39
2022/07/26 02:11:01;;;;;;;8.60;6.80;;;21.40;99.90;;;;;;5002119;28;20037;-39
2022/07/26 02:13:29;;;;;;;9.60;7.03;;;21.50;99.90;;;;;;5001199;28;20045;-39
2022/07/26 02:15:57;;;;;;;11.90;6.78;;;21.60;99.90;;;;;;5001216;28;20025;-37
2022/07/26 02:18:23;;;;;;;;;;;21.70;99.90;;;;;;5001816;28;20053;-37
2022/07/26 02:20:49;;;;;;;10.18;7.13;;;21.60;99.90;;;;;;4999763;28;19917;-40
2022/07/26 02:23:14;;;;;;;10.48;7.80;;;21.30;99.90;;;;;;5005065;28;20037;-39
2022/07/26 02:25:40;;;;;;;9.95;7.70;;;21.30;99.90;;;;;;5005415;28;20164;-40
2022/07/26 02:28:06;;;;;;;10.57;7.60;;;21.20;99.90;;;;;;5005889;28;20033;-39
2022/07/26 02:30:31;;;;;;;12.45;7.55;;;21.00;99.90;;;;;;5004060;28;20033;-40
2022/07/26 02:32:57;;;;;;;11.85;7.63;;;21.10;99.90;;;;;;5007089;28;20037;-40
2022/07/26 02:35:22;;;;;;;10.93;7.43;;;21.00;99.90;;;;;;5006773;28;20487;-39
2022/07/26 02:37:48;;;;;;;12.25;7.30;;;21.10;99.90;;;;;;5007520;28;20030;-39
2022/07/26 02:40:13;;;;;;;8.23;7.00;;;21.20;99.90;;;;;;5005643;28;20037;-39
2022/07/26 02:42:39;;;;;;;9.68;6.22;;;21.30;99.90;;;;;;5005855;28;20037;-39
2022/07/26 02:45:05;;;;;;;8.65;6.00;;;21.10;99.90;;;;;;5008022;28;20038;-40
2022/07/26 02:47:31;;;;;;;8.95;6.60;;;21.10;99.90;;;;;;5005858;28;20025;-37
2022/07/26 02:49:57;;;;;;;7.80;6.05;;;20.90;99.90;;;;;;5006596;28;20037;-40
2022/07/26 02:52:23;;;;;;;6.78;5.38;;;20.90;99.90;;;;;;5004381;28;20041;-40
2022/07/26 02:54:49;;;;;;;8.65;5.70;;;21.00;99.90;;;;;;5005269;28;20042;-36
2022/07/26 02:57:14;;;;;;;7.95;5.43;;;20.90;99.90;;;;;;5003531;28;20083;-37
2022/07/26 02:59:40;;;;;;;8.57;5.68;;;21.00;99.90;;;;;;5006387;28;20483;-37
2022/07/26 03:02:06;;;;;;;7.43;5.60;;;21.00;99.90;;;;;;5005801;28;20053;-38
2022/07/26 03:04:32;;;;;;;9.65;6.20;;;21.00;99.90;;;;;;5005646;28;20034;-40
2022/07/26 03:06:57;;;;;;;6.85;5.20;;;21.00;99.90;;;;;;5006603;28;20709;-39
2022/07/26 03:09:23;;;;;;;7.25;5.68;;;21.10;99.90;;;;;;5005457;28;20033;-39
2022/07/26 03:11:48;;;;;;;8.27;6.00;;;21.20;99.90;;;;;;5005782;28;20030;-39
2022/07/26 03:14:14;;;;;;;7.82;5.50;;;21.20;99.90;;;;;;5007686;28;20053;-39
2022/07/26 03:16:40;;;;;;;8.98;5.95;;;21.30;99.90;;;;;;5008283;28;20499;-39
2022/07/26 03:19:05;;;;;;;9.27;5.93;;;21.40;99.90;;;;;;5009621;28;20053;-39
2022/07/26 03:21:31;;;;;;;5.82;5.22;;;21.40;99.90;;;;;;5008184;28;20365;-37
2022/07/26 03:23:56;;;;;;;6.35;5.32;;;21.40;99.90;;;;;;5006610;28;20493;-40
2022/07/26 03:26:22;;;;;;;7.03;5.53;;;21.50;99.90;;;;;;5008560;28;20069;-38
2022/07/26 03:28:48;;;;;;;6.93;5.90;;;21.50;99.90;;;;;;5005631;28;20075;-37
2022/07/26 03:31:13;;;;;;;6.82;5.60;;;21.50;99.90;;;;;;5006401;28;20161;-36
2022/07/26 03:33:39;;;;;;;6.45;4.93;;;21.50;99.90;;;;;;5009238;28;20164;-38
2022/07/26 03:36:06;;;;;;;7.32;5.95;;;21.50;99.90;;;;;;5008523;28;20022;-38
2022/07/26 03:38:32;;;;;;;8.07;5.97;;;21.60;99.90;;;;;;5005643;28;20041;-39
2022/07/26 03:40:57;;;;;;;10.52;5.95;;;21.50;99.90;;;;;;5008459;28;20383;-37
2022/07/26 03:43:23;;;;;;;7.05;5.57;;;21.50;99.90;;;;;;5009938;28;20033;-40
2022/07/26 03:45:49;;;;;;;8.40;5.35;;;21.50;99.90;;;;;;5010530;28;20034;-38
2022/07/26 03:48:15;;;;;;;8.15;6.10;;;21.50;99.90;;;;;;5004930;28;20099;-38
2022/07/26 03:50:41;;;;;;;10.18;5.80;;;21.50;99.90;;;;;;5007581;28;20041;-38
2022/07/26 03:53:07;;;;;;;9.15;5.50;;;21.50;99.90;;;;;;5007509;28;20054;-39
2022/07/26 03:58:17;;;;;;;8.50;6.22;;;21.60;99.90;;;;;;5005578;28;20154;-39
2022/07/26 04:00:44;;;;;;;8.50;6.07;;;21.60;99.90;;;;;;5006358;28;20495;-39
2022/07/26 04:03:10;;;;;;;9.18;5.80;;;21.50;99.90;;;;;;5006744;28;20379;-36
2022/07/26 04:05:36;;;;;;;8.77;5.70;;;21.50;99.90;;;;;;5005404;28;20030;-39
2022/07/26 04:08:01;;;;;;;9.68;6.50;;;21.60;99.90;;;;;;5023375;28;20030;-37
2022/07/26 04:10:27;;;;;;;9.13;6.05;;;21.50;99.90;;;;;;5005072;28;20018;-39
2022/07/26 04:12:53;;;;;;;9.15;6.72;;;21.30;99.90;;;;;;5005954;28;20037;-39
2022/07/26 04:15:20;;;;;;;9.25;6.28;;;21.00;99.90;;;;;;5005743;28;20057;-40
2022/07/26 04:17:47;;;;;;;7.87;6.23;;;21.10;99.90;;;;;;5006615;28;20038;-39
2022/07/26 04:20:13;;;;;;;8.07;6.30;;;21.20;99.90;;;;;;5007591;28;20037;-39
2022/07/26 04:22:40;;;;;;;9.85;6.50;;;21.20;99.90;;;;;;5005003;28;20030;-37
2022/07/26 04:25:07;;;;;;;10.15;6.40;;;21.30;99.90;;;;;;5006823;28;20037;-37
2022/07/26 04:27:33;;;;;;;9.15;6.82;;;21.30;99.90;;;;;;5008403;28;20499;-37
2022/07/26 04:29:59;;;;;;;7.57;6.25;;;21.20;99.90;;;;;;5006095;28;20176;-40
2022/07/26 04:32:24;;;;;;;9.30;4.90;;;21.10;99.90;;;;;;5007971;28;20073;-38
2022/07/26 04:34:50;;;;;;;8.93;5.50;;;20.90;99.90;;;;;;5008685;28;20030;-39
2022/07/26 04:37:16;;;;;;;5.07;4.25;;;20.70;99.90;;;;;;5009562;28;20045;-39
2022/07/26 04:39:41;;;;;;;6.93;4.32;;;20.60;99.90;;;;;;5008011;28;20491;-38
2022/07/26 04:42:07;;;;;;;6.72;4.43;;;20.70;99.90;;;;;;5006634;28;20038;-38
2022/07/26 04:44:33;;;;;;;4.88;3.45;;;20.80;99.90;;;;;;5008407;28;20125;-35
2022/07/26 04:46:58;;;;;;;6.93;3.90;;;20.80;99.90;;;;;;5003447;28;20033;-39
2022/07/26 04:49:24;;;;;;;4.93;3.28;;;20.80;99.90;;;;;;5004635;28;20048;-36
2022/07/26 04:51:50;;;;;;;3.70;3.10;;;20.80;99.90;;;;;;5006866;28;20108;-37
2022/07/26 04:54:19;;;;;;;4.25;3.40;;;20.80;99.90;;;;;;5003631;28;20116;-38
2022/07/26 04:56:45;;;;;;;5.45;2.80;;;20.70;99.90;;;;;;5005876;28;20061;-35
2022/07/26 04:59:11;;;;;;;4.28;2.80;;;20.70;99.90;;;;;;5006930;28;20034;-37
2022/07/26 05:01:37;;;;;;;5.35;2.90;;;20.70;99.90;;;;;;5002226;28;20042;-39
2022/07/26 05:04:02;;;;;;;3.90;2.78;;;20.70;99.90;;;;;;5003408;28;20114;-36
2022/07/26 05:06:28;;;;;;;4.25;2.20;;;20.70;99.90;;;;;;5003081;28;20675;-39
2022/07/26 05:08:54;;;;;;;3.85;2.70;;;20.70;99.90;;;;;;5004708;28;20034;-39
2022/07/26 05:11:19;;;;;;;6.20;2.65;;;20.70;99.90;;;;;;5003202;28;20057;-36
2022/07/26 05:13:45;;;;;;;3.53;2.28;;;20.60;99.90;;;;;;5001624;28;20030;-36
2022/07/26 05:16:10;;;;;;;5.20;2.08;;;20.60;99.90;;;;;;5001210;28;20034;-36
2022/07/26 05:18:36;;;;;;;2.72;2.30;;;20.50;99.90;;;;;;5007869;28;20033;-38
2022/07/26 05:21:02;;;;;;;4.38;2.45;;;20.30;99.90;;;;;;5004973;28;20095;-36
2022/07/26 05:23:27;;;;;;;3.80;2.63;;;20.30;99.90;;;;;;5006875;28;20032;-36
2022/07/26 05:25:54;;;;;;;2.80;2.60;;;20.30;99.90;;;;;;5006490;28;20029;-39
2022/07/26 05:28:19;;;;;;;5.05;3.03;;;20.30;99.90;;;;;;5007570;28;20030;-39
2022/07/26 05:30:45;;;;;;;2.95;2.60;;;20.40;99.90;;;;;;5002036;28;20044;-39
2022/07/26 05:33:11;;;;;;;3.58;2.42;;;20.40;99.90;;;;;;5008430;28;20080;-39
2022/07/26 05:35:36;;;;;;;5.78;2.63;;;20.40;99.90;;;;;;5003608;28;20033;-38
2022/07/26 05:38:02;;;;;;;4.20;2.70;;;20.40;99.90;;;;;;5002249;28;20029;-39
2022/07/26 05:40:28;;;;;;;2.53;2.08;;;20.40;99.90;;;;;;5003508;28;20041;-36
2022/07/26 05:42:53;;;;;;;3.45;2.67;;;20.40;99.90;;;;;;5005738;28;20684;-37
2022/07/26 05:45:19;;;;;;;5.13;2.88;;;20.40;99.90;;;;;;5006290;28;20034;-40
2022/07/26 05:47:47;;;;;;;4.25;2.70;;;20.40;99.90;;;;;;5004690;28;20399;-38
2022/07/26 05:50:13;;;;;;;3.17;2.65;;;20.40;99.90;;;;;;5005344;28;20834;-37
2022/07/26 05:52:39;;;;;;;3.30;2.55;;;20.40;99.90;;;;;;5005419;28;20109;-36
2022/07/26 05:55:05;;;;;;;5.28;2.60;;;20.30;99.90;;;;;;5003996;28;20499;-39
2022/07/26 05:57:31;;;;;;;2.80;2.60;;;20.20;99.90;;;;;;5004930;28;20040;-39
2022/07/26 05:59:57;;;;;;;3.13;2.42;;;20.10;99.90;;;;;;5007076;28;20467;-39
2022/07/26 06:02:22;;;;;;;3.58;2.35;;;19.90;99.90;;;;;;5005416;28;20125;-38
2022/07/26 06:04:48;;;;;;;4.78;2.40;;;19.90;99.90;;;;;;5005200;28;20770;-37
2022/07/26 06:07:14;;;;;;;3.42;2.75;;;19.90;99.90;;;;;;5005872;28;20030;-37
2022/07/26 06:09:40;;;;;;;2.58;2.38;;;19.90;99.90;;;;;;5007195;28;20030;-37
2022/07/26 06:12:05;;;;;;;3.22;2.45;;;19.90;99.90;;;;;;5007621;28;20022;-39
2022/07/26 06:14:31;;;;;;;6.35;2.40;;;19.90;99.90;;;;;;5007075;28;20033;-36
2022/07/26 06:16:57;;;;;;;2.90;2.50;;;19.90;99.90;;;;;;5006448;28;20034;-39
2022/07/26 06:19:22;;;;;;;3.67;2.83;;;20.00;99.90;;;;;;5002279;28;20034;-40
2022/07/26 06:21:48;;;;;;;2.83;2.50;;;20.00;99.90;;;;;;5006378;28;20104;-39
2022/07/26 06:24:13;;;;;;;2.85;2.40;;;20.10;99.90;;;;;;5006360;28;20029;-39
2022/07/26 06:26:39;;;;;;;3.47;2.13;;;20.20;99.90;;;;;;5005147;28;20058;-35
2022/07/26 06:29:05;;;;;;;3.53;2.30;;;20.30;99.90;;;;;;5003319;28;20026;-39
2022/07/26 06:31:30;;;;;;;3.80;2.33;;;20.40;99.90;;;;;;5004344;28;20126;-35
2022/07/26 06:33:56;;;;;;;4.57;2.75;;;20.50;99.90;;;;;;5004866;28;20030;-39
2022/07/26 06:36:22;;;;;;;3.10;2.20;;;20.20;99.90;;;;;;5003689;28;20041;-38
2022/07/26 06:38:47;;;;;;;6.60;2.50;;;20.10;99.90;;;;;;5009870;28;20244;-39
2022/07/26 06:41:13;;;;;;;4.00;3.00;;;20.00;99.90;;;;;;5008063;28;20025;-39
2022/07/26 06:43:39;;;;;;;2.88;2.47;;;20.00;99.90;;;;;;5010445;28;20041;-36
2022/07/26 06:46:05;;;;;;;3.00;2.50;;;20.00;99.90;;;;;;5011129;28;20094;-37
2022/07/26 06:48:30;;;;;;;2.78;2.30;;;20.00;99.90;;;;;;5012506;28;20097;-39
2022/07/26 06:50:56;;;;;;;2.90;2.50;;;20.00;99.90;;;;;;5012523;28;20034;-38
2022/07/26 06:53:21;;;;;;;3.28;2.10;;;20.00;99.90;;;;;;5012202;28;20041;-39
2022/07/26 06:55:47;;;;;;;3.83;2.70;;;20.10;99.90;;;;;;5010588;28;20029;-39
2022/07/26 06:58:13;;;;;;;5.25;2.70;;;20.10;99.90;;;;;;5010247;28;20637;-39
2022/07/26 07:00:38;;;;;;;3.22;2.78;;;20.20;99.90;;;;;;5011452;28;20025;-39
2022/07/26 07:03:04;;;;;;;2.70;2.35;;;20.20;99.90;;;;;;5013235;28;20029;-39
2022/07/26 07:05:29;;;;;;;4.00;2.85;;;20.30;99.90;;;;;;5012949;28;20030;-36
2022/07/26 07:07:55;;;;;;;3.08;2.05;;;20.30;99.90;;;;;;5013257;28;20040;-37
2022/07/26 07:10:21;;;;;;;3.42;2.70;;;20.40;99.90;;;;;;5010583;28;20037;-36
2022/07/26 07:12:46;;;;;;;3.47;2.30;;;20.50;99.90;;;;;;5014269;28;20022;-39
2022/07/26 07:15:12;;;;;;;2.67;2.30;;;20.40;99.90;;;;;;5012285;28;20580;-39
2022/07/26 07:17:38;;;;;;;3.88;2.47;;;20.50;99.90;;;;;;5012264;28;20037;-38
2022/07/26 07:20:04;;;;;;;2.72;2.40;;;20.60;99.90;;;;;;5013384;28;20133;-39
2022/07/26 07:22:30;;;;;;;3.25;2.30;;;20.60;99.90;;;;;;5010081;28;20029;-39
2022/07/26 07:24:56;;;;;;;3.47;2.33;;;20.70;99.90;;;;;;5013976;28;20064;-38
2022/07/26 07:27:21;;;;;;;3.03;2.45;;;20.70;99.90;;;;;;5010958;28;20022;-36
2022/07/26 07:29:47;;;;;;;3.58;2.55;;;20.80;99.90;;;;;;5011775;28;20037;-39
2022/07/26 07:32:13;;;;;;;5.22;2.30;;;21.00;99.90;;;;;;5007432;28;20045;-37
2022/07/26 07:34:38;;;;;;;4.00;2.30;;;20.90;99.90;;;;;;5009298;28;20040;-39
2022/07/26 07:37:04;;;;;;;2.55;2.30;;;21.00;99.90;;;;;;5009122;28;20018;-37
2022/07/26 07:39:30;;;;;;;4.53;2.40;;;21.00;99.90;;;;;;5010019;28;20057;-39
2022/07/26 07:41:56;;;;;;;3.40;2.28;;;21.10;99.90;;;;;;5010821;28;20033;-39
2022/07/26 07:44:21;;;;;;;3.28;2.15;;;21.30;99.90;;;;;;5011136;28;20483;-39
2022/07/26 07:46:47;;;;;;;2.10;1.90;;;21.60;99.90;;;;;;5011514;28;20033;-39
2022/07/26 07:49:13;;;;;;;3.83;2.58;;;21.40;99.90;;;;;;5008665;28;20767;-39
2022/07/26 07:51:38;;;;;;;4.10;2.38;;;21.40;99.90;;;;;;5006040;28;20088;-39
2022/07/26 07:54:04;;;;;;;3.40;2.65;;;21.60;99.90;;;;;;5007751;28;20049;-39
2022/07/26 07:56:30;;;;;;;5.45;3.10;;;21.80;99.90;;;;;;5008742;28;20038;-40
2022/07/26 07:58:56;;;;;;;6.22;2.35;;;21.80;99.90;;;;;;5009182;28;20541;-38
2022/07/26 08:01:21;;;;;;;6.15;2.35;;;22.10;99.90;;;;;;5009119;28;20408;-39
2022/07/26 08:03:47;;;;;;;3.92;2.55;;;22.40;99.90;;;;;;5009665;28;20034;-37
2022/07/26 08:06:12;;;;;;;3.38;2.28;;;22.00;99.90;;;;;;5010228;28;20030;-39
2022/07/26 08:08:38;;;;;;;2.83;2.08;;;22.20;99.90;;;;;;5004961;28;20031;-39
2022/07/26 08:11:05;;;;;;;3.05;2.03;;;21.90;99.90;;;;;;5007547;28;20033;-39
2022/07/26 08:13:31;;;;;;;3.10;1.95;;;21.90;99.90;;;;;;5005992;28;20469;-38
2022/07/26 08:15:56;;;;;;;2.75;1.92;;;21.40;99.90;;;;;;5008333;28;20114;-37
2022/07/26 08:18:23;;;;;;;7.40;2.95;;;21.50;99.90;;;;;;5007736;28;20045;-39
2022/07/26 08:20:50;;;;;;;3.05;2.30;;;21.50;99.90;;;;;;5006892;28;20026;-38
2022/07/26 08:23:16;;;;;;;3.45;2.47;;;21.30;99.90;;;;;;5007928;28;20052;-38
2022/07/26 08:25:42;;;;;;;3.17;1.92;;;21.30;99.90;;;;;;5007344;28;20030;-38
2022/07/26 08:28:07;;;;;;;2.25;2.00;;;21.20;99.90;;;;;;5006861;28;20105;-38
2022/07/26 08:30:33;;;;;;;2.30;1.85;;;21.20;99.90;;;;;;5006604;28;20088;-37
2022/07/26 08:32:59;;;;;;;2.92;1.98;;;21.30;99.90;;;;;;5006875;28;20037;-36
2022/07/26 08:35:25;;;;;;;4.78;1.95;;;21.30;99.90;;;;;;5009224;28;20089;-37
2022/07/26 08:37:51;;;;;;;1.92;1.83;;;21.40;99.90;;;;;;5007351;28;20725;-36
2022/07/26 08:40:17;;;;;;;4.28;2.00;;;21.40;99.90;;;;;;5009288;28;20028;-38
2022/07/26 08:42:50;;;;;;;1.95;1.48;;;21.40;99.90;;;;;;5007420;28;20041;-37
2022/07/26 08:45:23;;;;;;;2.85;1.95;;;21.30;99.90;;;;;;5009401;28;20034;-39
2022/07/26 08:47:48;;;;;;;1.70;1.60;;;21.30;99.90;;;;;;5006222;28;20049;-39
2022/07/26 08:50:14;;;;;;;2.03;1.83;;;21.30;99.90;;;;;;5005075;28;20080;-38
2022/07/26 08:52:40;;;;;;;2.53;1.95;;;21.30;99.90;;;;;;5008854;28;20395;-36
2022/07/26 08:55:07;;;;;;;2.22;1.85;;;21.00;99.90;;;;;;5006436;28;20128;-36
2022/07/26 08:57:33;;;;;;;3.47;2.08;;;21.10;99.90;;;;;;5009395;28;20040;-37
2022/07/26 09:00:17;;;;;;;3.42;2.03;;;21.10;99.90;;;;;;5009108;28;20105;-39
2022/07/26 09:02:44;;;;;;;4.20;2.10;;;21.10;99.90;;;;;;5007250;28;20501;-38
2022/07/26 09:05:10;;;;;;;4.07;2.15;;;21.10;99.90;;;;;;5005757;28;20030;-38
2022/07/26 09:07:38;;;;;;;2.97;2.00;;;21.20;99.90;;;;;;5005787;28;20502;-39
2022/07/26 09:10:06;;;;;;;2.63;1.83;;;21.30;99.90;;;;;;5008053;28;20029;-39
2022/07/26 09:12:32;;;;;;;2.80;1.92;;;21.50;99.90;;;;;;5008953;28;20025;-39
2022/07/26 09:14:59;;;;;;;4.28;2.20;;;21.70;99.90;;;;;;5008622;28;20096;-39
2022/07/26 09:17:41;;;;;;;2.60;1.80;;;21.80;99.90;;;;;;5005533;28;20136;-38
2022/07/26 09:20:12;;;;;;;2.67;2.22;;;21.90;99.90;;;;;;5007468;28;20025;-38
2022/07/26 09:23:04;;;;;;;3.60;1.92;;;22.00;99.90;;;;;;5006835;28;20033;-37
2022/07/26 09:25:33;;;;;;;2.10;1.90;;;22.50;99.90;;;;;;5006671;28;20033;-39
2022/07/26 09:28:00;;;;;;;5.22;2.30;;;22.70;99.00;;;;;;5005972;28;20120;-38
2022/07/26 09:30:29;;;;;;;2.33;1.85;;;22.80;99.30;;;;;;5006786;28;20026;-39
2022/07/26 09:33:05;;;;;;;2.00;1.80;;;22.90;99.90;;;;;;5008232;28;20026;-38
2022/07/26 09:35:33;;;;;;;2.45;1.95;;;22.80;97.30;;;;;;5008658;28;20636;-37
2022/07/26 09:38:00;;;;;;;2.55;1.88;;;22.70;97.80;;;;;;5007650;28;20030;-36
2022/07/26 09:40:33;;;;;;;2.30;1.90;;;22.50;99.60;;;;;;5006636;28;20030;-38
2022/07/26 09:43:05;;;;;;;2.10;1.90;;;22.90;99.90;;;;;;5007853;28;20057;-38
2022/07/26 09:45:33;;;;;;;2.38;2.00;;;23.50;97.20;;;;;;5002565;28;21253;-39
2022/07/26 09:47:59;;;;;;;3.03;2.10;;;24.00;98.80;;;;;;5006971;28;20112;-39
2022/07/26 09:50:27;;;;;;;5.85;1.80;;;24.10;93.90;;;;;;5005140;28;20026;-37
2022/07/26 09:52:56;;;;;;;3.28;1.80;;;24.10;91.80;;;;;;5006932;28;20479;-37
2022/07/26 09:55:22;;;;;;;2.67;2.20;;;23.80;95.70;;;;;;5005817;28;20095;-39
2022/07/26 09:57:50;;;;;;;2.83;1.88;;;24.30;91.30;;;;;;5005209;28;20034;-39
2022/07/26 10:00:17;;;;;;;1.65;1.55;;;24.70;93.50;;;;;;5005776;28;20399;-36
2022/07/26 10:02:42;;;;;;;2.72;1.80;;;25.20;91.60;;;;;;5001877;28;20038;-39
2022/07/26 10:05:08;;;;;;;2.63;1.88;;;25.70;88.50;;;;;;5005895;28;20030;-40
2022/07/26 10:07:35;;;;;;;2.40;2.20;;;25.30;84.80;;;;;;5006384;28;20037;-39
2022/07/26 10:10:06;;;;;;;2.35;2.20;;;24.50;80.50;;;;;;5006715;28;20091;-39
2022/07/26 10:12:32;;;;;;;3.13;2.10;;;24.60;88.60;;;;;;5005562;28;20426;-38
2022/07/26 10:14:58;;;;;;;3.13;2.00;;;24.40;86.60;;;;;;5007232;28;20058;-40
2022/07/26 10:17:32;;;;;;;1.90;1.80;;;24.10;90.00;;;;;;5006055;28;20507;-39
2022/07/26 10:20:04;;;;;;;2.60;1.77;;;23.90;92.20;;;;;;5003622;28;20026;-38
2022/07/26 10:22:35;;;;;;;2.63;1.52;;;23.70;88.40;;;;;;5005357;28;20510;-39
2022/07/26 10:25:18;;;;;;;5.00;2.30;;;23.50;89.30;;;;;;5008351;28;20036;-39
2022/07/26 10:27:56;;;;;;;4.20;1.90;;;23.70;91.30;;;;;;5004895;28;20045;-37
2022/07/26 10:30:26;;;;;;;;;;;23.40;90.80;;;;;;5005588;28;20033;-36
2022/07/26 10:33:12;;;;;;;3.05;2.10;;;23.40;91.80;;;;;;5006032;28;19910;-39
2022/07/26 10:35:43;;;;;;;3.40;1.80;;;23.10;91.90;;;;;;5006766;28;21050;-39
2022/07/26 10:38:20;;;;;;;2.42;2.00;;;23.20;92.70;;;;;;5004898;28;20487;-39
2022/07/26 10:40:56;;;;;;;3.08;2.10;;;23.20;91.40;;;;;;5007364;28;20030;-39
2022/07/26 10:43:22;;;;;;;3.83;2.33;;;23.10;92.50;;;;;;5004388;28;20407;-36
2022/07/26 10:45:47;;;;;;;2.00;1.80;;;22.80;92.60;;;;;;5006710;28;20476;-39
2022/07/26 10:48:17;;;;;;;3.75;2.15;;;22.90;94.00;;;;;;5004933;28;20075;-39
2022/07/26 10:50:45;;;;;;;4.57;2.20;;;22.80;94.30;;;;;;5007431;28;20387;-39
2022/07/26 10:53:18;;;;;;;3.13;2.10;;;22.80;94.80;;;;;;5006143;28;20097;-37
2022/07/26 10:55:45;;;;;;;2.97;2.17;;;22.90;95.90;;;;;;5002477;28;20384;-39
2022/07/26 10:58:11;;;;;;;;;;;22.90;97.10;;;;;;5002960;28;20102;-39
2022/07/26 11:00:37;;;;;;;2.17;1.98;;;23.00;99.10;;;;;;5000917;28;19985;-37
2022/07/26 11:03:02;;;;;;;5.85;2.20;;;23.00;98.00;;;;;;4999972;28;20084;-37
2022/07/26 11:05:30;;;;;;;2.60;2.30;;;23.10;98.30;;;;;;5006130;28;20030;-37
2022/07/26 11:07:56;;;;;;;2.30;2.10;;;23.30;99.70;;;;;;5005834;28;20476;-38
2022/07/26 11:10:30;;;;;;;3.45;2.50;;;23.10;95.10;;;;;;5003205;28;20072;-39
2022/07/26 11:13:19;;;;;;;2.22;1.73;;;23.10;94.90;;;;;;5004657;28;20487;-39
2022/07/26 11:15:52;;;;;;;2.72;2.08;;;23.20;96.50;;;;;;5004290;28;20034;-37
2022/07/26 11:18:26;;;;;;;3.63;1.90;;;23.40;95.50;;;;;;5003616;28;20065;-39
2022/07/26 11:20:54;;;;;;;2.90;1.98;;;23.40;94.80;;;;;;5002035;28;20499;-38
2022/07/26 11:23:32;;;;;;;2.17;1.98;;;23.50;96.00;;;;;;5005122;28;20033;-37
2022/07/26 11:25:57;;;;;;;;;;;23.80;92.50;;;;;;5006469;28;20041;-37
2022/07/26 11:28:23;;;;;;;2.70;2.05;;;23.80;90.30;;;;;;5008218;28;19913;-36
2022/07/26 11:30:56;;;;;;;2.20;2.00;;;24.10;91.50;;;;;;5008749;28;20148;-37
2022/07/26 11:33:53;;;;;;;4.65;2.25;;;24.50;91.10;;;;;;5010193;28;20033;-39
2022/07/26 11:36:35;;;;;;;2.80;1.88;;;24.30;90.70;;;;;;5009725;28;20034;-39
2022/07/26 11:39:22;;;;;;;2.78;2.13;;;24.40;88.60;;;;;;5007879;28;20084;-39
2022/07/26 11:41:49;;;;;;;2.20;2.00;;;24.40;89.10;;;;;;5008605;28;20038;-39
2022/07/26 11:44:24;;;;;;;1.73;1.63;;;24.50;84.30;;;;;;5007236;28;20037;-39
2022/07/26 11:46:51;;;;;;;3.25;2.40;;;23.90;81.40;;;;;;5006955;28;20037;-36
2022/07/26 11:49:27;;;;;;;2.10;1.90;;;24.10;85.00;;;;;;5007792;28;20109;-39
2022/07/26 11:52:01;;;;;;;1.90;1.80;;;24.30;81.00;;;;;;5006803;28;20018;-39
2022/07/26 11:54:31;;;;;;;2.00;1.80;;;24.50;83.70;;;;;;5007953;28;20045;-39
2022/07/26 11:57:01;;;;;;;3.42;1.88;;;24.70;80.50;;;;;;5004800;28;20058;-37
2022/07/26 11:59:28;;;;;;;2.30;2.10;;;24.90;75.60;;;;;;5023192;28;20030;-39
2022/07/26 12:01:56;;;;;;;2.30;1.98;;;24.70;80.60;;;;;;5003486;28;20045;-39
2022/07/26 12:04:33;;;;;;;2.17;1.90;;;24.60;80.60;;;;;;5006241;28;20038;-36
2022/07/26 12:07:00;;;;;;;1.87;1.77;;;24.50;78.00;;;;;;5005009;28;20038;-38
2022/07/26 12:09:41;;;;;;;2.10;1.87;;;24.60;75.80;;;;;;5010476;28;20265;-38
2022/07/26 12:12:29;;;;;;;2.30;2.10;;;24.60;75.70;;;;;;5008657;28;20026;-39
2022/07/26 12:15:04;;;;;;;1.77;1.67;;;24.80;76.20;;;;;;5007103;28;20657;-36
2022/07/26 12:17:30;;;;;;;2.13;1.98;;;24.80;72.20;;;;;;5008796;28;20144;-39
2022/07/26 12:20:08;;;;;;;3.80;2.15;;;24.90;71.80;;;;;;5009302;28;20026;-37
2022/07/26 12:22:34;;;;;;;1.90;1.80;;;25.00;69.70;;;;;;5007714;28;20034;-38
2022/07/26 12:25:00;;;;;;;1.88;1.77;;;25.30;61.80;;;;;;5009115;28;20030;-40
2022/07/26 12:27:29;;;;;;;1.90;1.80;;;25.20;54.30;;;;;;5009662;28;20105;-39
2022/07/26 12:30:13;;;;;;;2.88;1.58;;;25.10;53.60;;;;;;5007528;28;20030;-39
2022/07/26 12:32:41;;;;;;;1.80;1.70;;;24.70;54.00;;;;;;5006154;28;20091;-40
2022/07/26 12:35:24;;;;;;;1.65;1.55;;;24.60;54.70;;;;;;5005503;28;20478;-39
2022/07/26 12:37:52;;;;;;;3.83;1.90;;;24.70;54.90;;;;;;5008804;28;20095;-39
2022/07/26 12:40:25;;;;;;;2.53;1.67;;;24.60;55.20;;;;;;5006706;28;20475;-37
2022/07/26 12:42:56;;;;;;;1.70;1.55;;;24.50;53.10;;;;;;5003361;28;20152;-38
2022/07/26 12:45:28;;;;;;;2.58;1.80;;;24.30;51.90;;;;;;5006857;28;20041;-39
2022/07/26 12:47:56;;;;;;;2.30;1.40;;;24.30;54.40;;;;;;5004303;28;20025;-38
2022/07/26 12:50:24;;;;;;;2.30;1.80;;;24.30;51.10;;;;;;5006618;28;20031;-35
2022/07/26 12:52:50;;;;;;;;;;;24.40;54.80;;;;;;5006419;28;20023;-39